De Haan, Belgium
Current Conditions -  °F | °C
As of 9:50 PM on Tuesday 21 Oct 2014 (Local Time) from EBOS Reporting Station
Scattered Clouds Scattered Clouds  
Wind Chill: 52°   Ceiling: Unl
Heat Index: 52°   Visibility: 6mi
Dew Point: 41°   Wind: 36mph
Humidity: 67%   Direction: 300°WNW
Pressure: 29.88"   Gusts: 47mph
Location:  51.27°N, 3.03°E
Report Text: EBOS 211950Z 30031G41KT 9999 FEW026 SCT036 11/05 Q1012 NOSIG
Loading
Personal Weather Stations






























Interactive Weather Map
Tropical Storm Tracking
New forecast layout! Learn more

10-Day Weather Forecast

Advertisements
Track Severe Weather on mobile